sensor_id;sensor_type;location;lat;lon;timestamp;P1;durP1;ratioP1;P2;durP2;ratioP2
59312;SDS011;45084;51.486;7.366;2024-01-11T00:01:36;48.67;;;22.90;;
59312;SDS011;45084;51.486;7.366;2024-01-11T00:04:01;44.93;;;22.40;;
59312;SDS011;45084;51.486;7.366;2024-01-11T00:06:27;45.93;;;23.10;;
59312;SDS011;45084;51.486;7.366;2024-01-11T00:08:52;42.33;;;22.20;;
59312;SDS011;45084;51.486;7.366;2024-01-11T00:11:18;44.90;;;22.30;;
59312;SDS011;45084;51.486;7.366;2024-01-11T00:13:44;46.67;;;22.80;;
59312;SDS011;45084;51.486;7.366;2024-01-11T00:16:09;46.73;;;21.63;;
59312;SDS011;45084;51.486;7.366;2024-01-11T00:18:35;43.37;;;21.97;;
59312;SDS011;45084;51.486;7.366;2024-01-11T00:21:00;47.43;;;22.43;;
59312;SDS011;45084;51.486;7.366;2024-01-11T00:23:26;45.83;;;23.30;;
59312;SDS011;45084;51.486;7.366;2024-01-11T00:25:52;48.03;;;23.57;;
59312;SDS011;45084;51.486;7.366;2024-01-11T00:28:18;43.53;;;22.43;;
59312;SDS011;45084;51.486;7.366;2024-01-11T00:30:43;52.73;;;23.47;;
59312;SDS011;45084;51.486;7.366;2024-01-11T00:33:09;46.47;;;22.57;;
59312;SDS011;45084;51.486;7.366;2024-01-11T00:35:35;50.10;;;23.37;;
59312;SDS011;45084;51.486;7.366;2024-01-11T00:38:00;45.27;;;24.23;;
59312;SDS011;45084;51.486;7.366;2024-01-11T00:40:26;40.47;;;22.97;;
59312;SDS011;45084;51.486;7.366;2024-01-11T00:42:52;46.97;;;24.53;;
59312;SDS011;45084;51.486;7.366;2024-01-11T00:45:17;46.30;;;22.17;;
59312;SDS011;45084;51.486;7.366;2024-01-11T00:47:43;44.57;;;22.67;;
59312;SDS011;45084;51.486;7.366;2024-01-11T00:50:08;44.77;;;23.67;;
59312;SDS011;45084;51.486;7.366;2024-01-11T00:52:34;46.83;;;23.07;;
59312;SDS011;45084;51.486;7.366;2024-01-11T00:55:00;46.30;;;22.60;;
59312;SDS011;45084;51.486;7.366;2024-01-11T00:57:25;46.67;;;24.03;;
59312;SDS011;45084;51.486;7.366;2024-01-11T00:59:51;42.57;;;21.83;;
59312;SDS011;45084;51.486;7.366;2024-01-11T01:02:16;42.60;;;21.60;;
59312;SDS011;45084;51.486;7.366;2024-01-11T01:04:44;49.97;;;23.83;;
59312;SDS011;45084;51.486;7.366;2024-01-11T01:07:10;46.83;;;22.73;;
59312;SDS011;45084;51.486;7.366;2024-01-11T01:09:35;47.47;;;23.53;;
59312;SDS011;45084;51.486;7.366;2024-01-11T01:12:01;49.97;;;23.90;;
59312;SDS011;45084;51.486;7.366;2024-01-11T01:14:26;52.10;;;25.67;;
59312;SDS011;45084;51.486;7.366;2024-01-11T01:16:52;47.10;;;24.17;;
59312;SDS011;45084;51.486;7.366;2024-01-11T01:19:17;43.33;;;22.33;;
59312;SDS011;45084;51.486;7.366;2024-01-11T01:21:43;45.07;;;22.93;;
59312;SDS011;45084;51.486;7.366;2024-01-11T01:24:08;43.90;;;22.93;;
59312;SDS011;45084;51.486;7.366;2024-01-11T01:26:34;45.87;;;23.50;;
59312;SDS011;45084;51.486;7.366;2024-01-11T01:29:00;46.03;;;22.87;;
59312;SDS011;45084;51.486;7.366;2024-01-11T01:31:26;48.57;;;23.50;;
59312;SDS011;45084;51.486;7.366;2024-01-11T01:33:51;47.70;;;23.27;;
59312;SDS011;45084;51.486;7.366;2024-01-11T01:36:17;47.17;;;22.50;;
59312;SDS011;45084;51.486;7.366;2024-01-11T01:38:42;46.57;;;23.47;;
59312;SDS011;45084;51.486;7.366;2024-01-11T01:41:08;48.10;;;23.77;;
59312;SDS011;45084;51.486;7.366;2024-01-11T01:43:34;47.77;;;24.43;;
59312;SDS011;45084;51.486;7.366;2024-01-11T01:45:59;46.07;;;22.97;;
59312;SDS011;45084;51.486;7.366;2024-01-11T01:48:25;43.60;;;23.37;;
59312;SDS011;45084;51.486;7.366;2024-01-11T01:50:51;54.77;;;24.13;;
59312;SDS011;45084;51.486;7.366;2024-01-11T01:53:19;49.87;;;25.60;;
59312;SDS011;45084;51.486;7.366;2024-01-11T01:55:47;47.07;;;24.60;;
59312;SDS011;45084;51.486;7.366;2024-01-11T01:58:13;48.73;;;23.87;;
59312;SDS011;45084;51.486;7.366;2024-01-11T02:00:40;47.87;;;23.40;;
59312;SDS011;45084;51.486;7.366;2024-01-11T02:03:06;48.10;;;24.23;;
59312;SDS011;45084;51.486;7.366;2024-01-11T02:05:33;43.93;;;23.20;;
59312;SDS011;45084;51.486;7.366;2024-01-11T02:07:59;48.40;;;24.67;;
59312;SDS011;45084;51.486;7.366;2024-01-11T02:10:28;46.07;;;23.43;;
59312;SDS011;45084;51.486;7.366;2024-01-11T02:12:57;44.60;;;23.60;;
59312;SDS011;45084;51.486;7.366;2024-01-11T02:15:24;45.53;;;23.63;;
59312;SDS011;45084;51.486;7.366;2024-01-11T02:17:49;49.60;;;23.67;;
59312;SDS011;45084;51.486;7.366;2024-01-11T02:20:15;45.50;;;24.27;;
59312;SDS011;45084;51.486;7.366;2024-01-11T02:22:41;49.00;;;24.27;;
59312;SDS011;45084;51.486;7.366;2024-01-11T02:25:11;46.63;;;23.43;;
59312;SDS011;45084;51.486;7.366;2024-01-11T02:30:12;47.93;;;24.10;;
59312;SDS011;45084;51.486;7.366;2024-01-11T02:32:38;50.20;;;24.90;;
59312;SDS011;45084;51.486;7.366;2024-01-11T02:35:04;47.63;;;23.83;;
59312;SDS011;45084;51.486;7.366;2024-01-11T02:37:30;46.80;;;23.37;;
59312;SDS011;45084;51.486;7.366;2024-01-11T02:39:56;47.73;;;24.37;;
59312;SDS011;45084;51.486;7.366;2024-01-11T02:42:22;55.17;;;25.03;;
59312;SDS011;45084;51.486;7.366;2024-01-11T02:44:47;56.70;;;26.73;;
59312;SDS011;45084;51.486;7.366;2024-01-11T02:47:13;60.90;;;26.00;;
59312;SDS011;45084;51.486;7.366;2024-01-11T02:49:38;53.87;;;24.93;;
59312;SDS011;45084;51.486;7.366;2024-01-11T02:52:04;57.53;;;27.30;;
59312;SDS011;45084;51.486;7.366;2024-01-11T02:54:30;56.10;;;27.43;;
59312;SDS011;45084;51.486;7.366;2024-01-11T02:56:55;59.93;;;26.40;;
59312;SDS011;45084;51.486;7.366;2024-01-11T02:59:22;52.63;;;25.10;;
59312;SDS011;45084;51.486;7.366;2024-01-11T03:01:49;47.30;;;23.50;;
59312;SDS011;45084;51.486;7.366;2024-01-11T03:04:14;53.73;;;24.87;;
59312;SDS011;45084;51.486;7.366;2024-01-11T03:06:40;50.50;;;23.13;;
59312;SDS011;45084;51.486;7.366;2024-01-11T03:09:06;50.23;;;26.53;;
59312;SDS011;45084;51.486;7.366;2024-01-11T03:11:31;48.77;;;24.30;;
59312;SDS011;45084;51.486;7.366;2024-01-11T03:14:00;51.60;;;24.23;;
59312;SDS011;45084;51.486;7.366;2024-01-11T03:16:27;50.63;;;24.07;;
59312;SDS011;45084;51.486;7.366;2024-01-11T03:18:53;56.57;;;26.13;;
59312;SDS011;45084;51.486;7.366;2024-01-11T03:21:18;46.80;;;23.37;;
59312;SDS011;45084;51.486;7.366;2024-01-11T03:23:44;53.40;;;26.33;;
59312;SDS011;45084;51.486;7.366;2024-01-11T03:26:16;48.83;;;24.97;;
59312;SDS011;45084;51.486;7.366;2024-01-11T03:28:42;44.47;;;23.03;;
59312;SDS011;45084;51.486;7.366;2024-01-11T03:31:09;50.83;;;23.40;;
59312;SDS011;45084;51.486;7.366;2024-01-11T03:33:35;55.93;;;25.33;;
59312;SDS011;45084;51.486;7.366;2024-01-11T03:36:07;51.53;;;24.70;;
59312;SDS011;45084;51.486;7.366;2024-01-11T03:38:33;49.43;;;24.73;;
59312;SDS011;45084;51.486;7.366;2024-01-11T03:40:59;48.73;;;23.13;;
59312;SDS011;45084;51.486;7.366;2024-01-11T03:43:25;49.63;;;23.83;;
59312;SDS011;45084;51.486;7.366;2024-01-11T03:45:50;47.87;;;24.73;;
59312;SDS011;45084;51.486;7.366;2024-01-11T03:48:16;48.57;;;23.47;;
59312;SDS011;45084;51.486;7.366;2024-01-11T03:50:41;49.63;;;24.83;;
59312;SDS011;45084;51.486;7.366;2024-01-11T03:53:07;58.03;;;25.17;;
59312;SDS011;45084;51.486;7.366;2024-01-11T03:55:33;46.60;;;24.00;;
59312;SDS011;45084;51.486;7.366;2024-01-11T03:57:58;51.83;;;25.33;;
59312;SDS011;45084;51.486;7.366;2024-01-11T04:00:24;48.83;;;23.47;;
59312;SDS011;45084;51.486;7.366;2024-01-11T04:02:49;51.10;;;26.07;;
59312;SDS011;45084;51.486;7.366;2024-01-11T04:05:15;49.33;;;25.27;;
59312;SDS011;45084;51.486;7.366;2024-01-11T04:07:41;48.23;;;24.33;;
59312;SDS011;45084;51.486;7.366;2024-01-11T04:10:06;50.73;;;25.17;;
59312;SDS011;45084;51.486;7.366;2024-01-11T04:12:35;48.90;;;25.10;;
59312;SDS011;45084;51.486;7.366;2024-01-11T04:15:01;50.73;;;23.67;;
59312;SDS011;45084;51.486;7.366;2024-01-11T04:17:27;46.03;;;23.40;;
59312;SDS011;45084;51.486;7.366;2024-01-11T04:19:52;52.33;;;25.67;;
59312;SDS011;45084;51.486;7.366;2024-01-11T04:22:18;54.07;;;25.10;;
59312;SDS011;45084;51.486;7.366;2024-01-11T04:24:44;57.53;;;25.83;;
59312;SDS011;45084;51.486;7.366;2024-01-11T04:27:09;52.07;;;25.90;;
59312;SDS011;45084;51.486;7.366;2024-01-11T04:29:35;54.70;;;25.77;;
59312;SDS011;45084;51.486;7.366;2024-01-11T04:32:02;56.60;;;26.00;;
59312;SDS011;45084;51.486;7.366;2024-01-11T04:34:28;54.90;;;26.17;;
59312;SDS011;45084;51.486;7.366;2024-01-11T04:36:54;49.90;;;24.93;;
59312;SDS011;45084;51.486;7.366;2024-01-11T04:39:19;56.67;;;25.63;;
59312;SDS011;45084;51.486;7.366;2024-01-11T04:41:45;49.63;;;25.10;;
59312;SDS011;45084;51.486;7.366;2024-01-11T04:44:10;54.87;;;25.97;;
59312;SDS011;45084;51.486;7.366;2024-01-11T04:46:36;54.70;;;25.20;;
59312;SDS011;45084;51.486;7.366;2024-01-11T04:49:02;49.23;;;25.60;;
59312;SDS011;45084;51.486;7.366;2024-01-11T04:51:27;62.13;;;27.87;;
59312;SDS011;45084;51.486;7.366;2024-01-11T04:53:53;54.03;;;26.03;;
59312;SDS011;45084;51.486;7.366;2024-01-11T04:56:18;50.43;;;25.40;;
59312;SDS011;45084;51.486;7.366;2024-01-11T04:58:44;57.10;;;26.53;;
59312;SDS011;45084;51.486;7.366;2024-01-11T05:01:11;55.33;;;26.13;;
59312;SDS011;45084;51.486;7.366;2024-01-11T05:03:38;48.13;;;24.83;;
59312;SDS011;45084;51.486;7.366;2024-01-11T05:06:03;53.73;;;24.83;;
59312;SDS011;45084;51.486;7.366;2024-01-11T05:08:29;54.13;;;25.60;;
59312;SDS011;45084;51.486;7.366;2024-01-11T05:10:54;52.33;;;25.60;;
59312;SDS011;45084;51.486;7.366;2024-01-11T05:13:20;50.23;;;25.87;;
59312;SDS011;45084;51.486;7.366;2024-01-11T05:15:46;50.83;;;25.83;;
59312;SDS011;45084;51.486;7.366;2024-01-11T05:18:12;50.17;;;24.70;;
59312;SDS011;45084;51.486;7.366;2024-01-11T05:20:38;50.90;;;23.90;;
59312;SDS011;45084;51.486;7.366;2024-01-11T05:23:04;56.23;;;26.80;;
59312;SDS011;45084;51.486;7.366;2024-01-11T05:25:30;47.80;;;25.27;;
59312;SDS011;45084;51.486;7.366;2024-01-11T05:28:01;54.83;;;26.90;;
59312;SDS011;45084;51.486;7.366;2024-01-11T05:30:28;50.80;;;26.60;;
59312;SDS011;45084;51.486;7.366;2024-01-11T05:32:54;52.60;;;27.43;;
59312;SDS011;45084;51.486;7.366;2024-01-11T05:35:20;59.30;;;28.97;;
59312;SDS011;45084;51.486;7.366;2024-01-11T05:37:46;66.10;;;28.67;;
59312;SDS011;45084;51.486;7.366;2024-01-11T05:40:12;57.13;;;29.27;;
59312;SDS011;45084;51.486;7.366;2024-01-11T05:42:38;63.97;;;29.77;;
59312;SDS011;45084;51.486;7.366;2024-01-11T05:45:04;61.27;;;28.80;;
59312;SDS011;45084;51.486;7.366;2024-01-11T05:47:30;60.43;;;28.70;;
59312;SDS011;45084;51.486;7.366;2024-01-11T05:49:59;59.47;;;27.73;;
59312;SDS011;45084;51.486;7.366;2024-01-11T05:52:24;52.17;;;27.40;;
59312;SDS011;45084;51.486;7.366;2024-01-11T05:54:52;65.30;;;28.07;;
59312;SDS011;45084;51.486;7.366;2024-01-11T05:57:21;56.90;;;28.47;;
59312;SDS011;45084;51.486;7.366;2024-01-11T05:59:46;54.43;;;25.97;;
59312;SDS011;45084;51.486;7.366;2024-01-11T06:02:12;56.50;;;26.50;;
59312;SDS011;45084;51.486;7.366;2024-01-11T06:04:38;53.53;;;27.00;;
59312;SDS011;45084;51.486;7.366;2024-01-11T06:07:04;56.57;;;25.87;;
59312;SDS011;45084;51.486;7.366;2024-01-11T06:09:30;54.50;;;25.10;;
59312;SDS011;45084;51.486;7.366;2024-01-11T06:11:56;51.50;;;25.80;;
59312;SDS011;45084;51.486;7.366;2024-01-11T06:14:21;54.07;;;26.57;;
59312;SDS011;45084;51.486;7.366;2024-01-11T06:16:47;56.40;;;26.27;;
59312;SDS011;45084;51.486;7.366;2024-01-11T06:19:12;54.03;;;26.70;;
59312;SDS011;45084;51.486;7.366;2024-01-11T06:21:38;55.43;;;26.80;;
59312;SDS011;45084;51.486;7.366;2024-01-11T06:24:03;50.53;;;25.23;;
59312;SDS011;45084;51.486;7.366;2024-01-11T06:26:29;53.33;;;26.73;;
59312;SDS011;45084;51.486;7.366;2024-01-11T06:28:55;61.57;;;29.10;;
59312;SDS011;45084;51.486;7.366;2024-01-11T06:31:20;58.43;;;26.43;;
59312;SDS011;45084;51.486;7.366;2024-01-11T06:33:46;60.23;;;27.20;;
59312;SDS011;45084;51.486;7.366;2024-01-11T06:36:12;62.87;;;30.83;;
59312;SDS011;45084;51.486;7.366;2024-01-11T06:38:37;68.07;;;34.70;;
59312;SDS011;45084;51.486;7.366;2024-01-11T06:41:03;79.93;;;34.17;;
59312;SDS011;45084;51.486;7.366;2024-01-11T06:43:28;70.33;;;33.93;;
59312;SDS011;45084;51.486;7.366;2024-01-11T06:45:54;69.63;;;32.83;;
59312;SDS011;45084;51.486;7.366;2024-01-11T06:48:19;69.50;;;31.37;;
59312;SDS011;45084;51.486;7.366;2024-01-11T06:50:45;68.03;;;32.33;;
59312;SDS011;45084;51.486;7.366;2024-01-11T06:53:11;65.43;;;31.47;;
59312;SDS011;45084;51.486;7.366;2024-01-11T06:55:36;66.43;;;32.37;;
59312;SDS011;45084;51.486;7.366;2024-01-11T06:58:02;62.43;;;31.40;;
59312;SDS011;45084;51.486;7.366;2024-01-11T07:00:27;60.47;;;30.10;;
59312;SDS011;45084;51.486;7.366;2024-01-11T07:02:53;62.37;;;30.53;;
59312;SDS011;45084;51.486;7.366;2024-01-11T07:05:19;66.10;;;29.90;;
59312;SDS011;45084;51.486;7.366;2024-01-11T07:07:44;54.87;;;27.20;;
59312;SDS011;45084;51.486;7.366;2024-01-11T07:10:10;60.33;;;28.90;;
59312;SDS011;45084;51.486;7.366;2024-01-11T07:12:37;55.27;;;27.40;;
59312;SDS011;45084;51.486;7.366;2024-01-11T07:15:04;59.47;;;27.90;;
59312;SDS011;45084;51.486;7.366;2024-01-11T07:17:30;54.27;;;28.03;;
59312;SDS011;45084;51.486;7.366;2024-01-11T07:19:55;54.60;;;27.30;;
59312;SDS011;45084;51.486;7.366;2024-01-11T07:22:21;51.47;;;27.33;;
59312;SDS011;45084;51.486;7.366;2024-01-11T07:24:46;56.80;;;29.40;;
59312;SDS011;45084;51.486;7.366;2024-01-11T07:27:12;58.73;;;28.40;;
59312;SDS011;45084;51.486;7.366;2024-01-11T07:29:38;63.43;;;29.80;;
59312;SDS011;45084;51.486;7.366;2024-01-11T07:32:03;57.70;;;29.10;;
59312;SDS011;45084;51.486;7.366;2024-01-11T07:34:29;52.03;;;27.47;;
59312;SDS011;45084;51.486;7.366;2024-01-11T07:36:55;61.97;;;29.27;;
59312;SDS011;45084;51.486;7.366;2024-01-11T07:39:21;58.80;;;30.60;;
59312;SDS011;45084;51.486;7.366;2024-01-11T07:41:47;59.13;;;28.87;;
59312;SDS011;45084;51.486;7.366;2024-01-11T07:44:13;54.13;;;28.33;;
59312;SDS011;45084;51.486;7.366;2024-01-11T07:46:39;57.57;;;28.73;;
59312;SDS011;45084;51.486;7.366;2024-01-11T07:49:05;57.77;;;29.50;;
59312;SDS011;45084;51.486;7.366;2024-01-11T07:51:31;58.53;;;28.43;;
59312;SDS011;45084;51.486;7.366;2024-01-11T07:53:57;54.93;;;27.87;;
59312;SDS011;45084;51.486;7.366;2024-01-11T07:56:24;57.50;;;28.83;;
59312;SDS011;45084;51.486;7.366;2024-01-11T07:58:50;55.10;;;27.30;;
59312;SDS011;45084;51.486;7.366;2024-01-11T08:01:16;55.63;;;27.63;;
59312;SDS011;45084;51.486;7.366;2024-01-11T08:03:44;59.73;;;26.07;;
59312;SDS011;45084;51.486;7.366;2024-01-11T08:06:10;56.13;;;28.77;;
59312;SDS011;45084;51.486;7.366;2024-01-11T08:08:36;51.40;;;26.73;;
59312;SDS011;45084;51.486;7.366;2024-01-11T08:11:03;54.70;;;26.00;;
59312;SDS011;45084;51.486;7.366;2024-01-11T08:13:29;56.83;;;27.57;;
59312;SDS011;45084;51.486;7.366;2024-01-11T08:15:56;60.93;;;28.50;;
59312;SDS011;45084;51.486;7.366;2024-01-11T08:18:22;59.20;;;27.17;;
59312;SDS011;45084;51.486;7.366;2024-01-11T08:20:48;59.23;;;27.90;;
59312;SDS011;45084;51.486;7.366;2024-01-11T08:23:14;51.23;;;27.70;;
59312;SDS011;45084;51.486;7.366;2024-01-11T08:25:40;54.53;;;26.57;;
59312;SDS011;45084;51.486;7.366;2024-01-11T08:28:05;54.90;;;27.87;;
59312;SDS011;45084;51.486;7.366;2024-01-11T08:30:32;59.20;;;28.53;;
59312;SDS011;45084;51.486;7.366;2024-01-11T08:32:57;53.20;;;25.40;;
59312;SDS011;45084;51.486;7.366;2024-01-11T08:35:23;62.17;;;29.87;;
59312;SDS011;45084;51.486;7.366;2024-01-11T08:37:49;66.53;;;30.37;;
59312;SDS011;45084;51.486;7.366;2024-01-11T08:40:14;63.80;;;31.07;;
59312;SDS011;45084;51.486;7.366;2024-01-11T08:42:40;58.60;;;27.87;;
59312;SDS011;45084;51.486;7.366;2024-01-11T08:45:07;63.47;;;32.20;;
59312;SDS011;45084;51.486;7.366;2024-01-11T08:47:34;68.87;;;32.03;;
59312;SDS011;45084;51.486;7.366;2024-01-11T08:50:00;68.40;;;34.00;;
59312;SDS011;45084;51.486;7.366;2024-01-11T08:52:25;79.13;;;35.47;;
59312;SDS011;45084;51.486;7.366;2024-01-11T08:54:51;70.83;;;35.43;;
59312;SDS011;45084;51.486;7.366;2024-01-11T08:57:17;63.27;;;33.07;;
59312;SDS011;45084;51.486;7.366;2024-01-11T08:59:43;69.97;;;33.53;;
59312;SDS011;45084;51.486;7.366;2024-01-11T09:02:09;69.13;;;34.00;;
59312;SDS011;45084;51.486;7.366;2024-01-11T09:04:35;63.00;;;32.63;;
59312;SDS011;45084;51.486;7.366;2024-01-11T09:07:01;74.53;;;31.20;;
59312;SDS011;45084;51.486;7.366;2024-01-11T09:09:27;66.13;;;33.07;;
59312;SDS011;45084;51.486;7.366;2024-01-11T09:11:52;70.43;;;35.03;;
59312;SDS011;45084;51.486;7.366;2024-01-11T09:14:18;70.90;;;33.73;;
59312;SDS011;45084;51.486;7.366;2024-01-11T09:16:44;71.03;;;35.30;;
59312;SDS011;45084;51.486;7.366;2024-01-11T09:19:10;63.37;;;35.13;;
59312;SDS011;45084;51.486;7.366;2024-01-11T09:21:37;71.97;;;35.43;;
59312;SDS011;45084;51.486;7.366;2024-01-11T09:24:02;69.63;;;33.83;;
59312;SDS011;45084;51.486;7.366;2024-01-11T09:26:28;69.67;;;34.80;;
59312;SDS011;45084;51.486;7.366;2024-01-11T09:28:53;60.10;;;29.87;;
59312;SDS011;45084;51.486;7.366;2024-01-11T09:31:19;58.77;;;32.37;;
59312;SDS011;45084;51.486;7.366;2024-01-11T09:33:45;56.67;;;31.50;;
59312;SDS011;45084;51.486;7.366;2024-01-11T09:36:10;65.03;;;33.47;;
59312;SDS011;45084;51.486;7.366;2024-01-11T09:38:37;62.33;;;31.73;;
59312;SDS011;45084;51.486;7.366;2024-01-11T09:43:33;58.23;;;31.63;;
59312;SDS011;45084;51.486;7.366;2024-01-11T09:46:00;62.23;;;32.83;;
59312;SDS011;45084;51.486;7.366;2024-01-11T09:48:29;77.10;;;31.93;;
59312;SDS011;45084;51.486;7.366;2024-01-11T09:50:56;60.60;;;31.63;;
59312;SDS011;45084;51.486;7.366;2024-01-11T09:53:24;62.17;;;32.03;;
59312;SDS011;45084;51.486;7.366;2024-01-11T09:55:51;57.00;;;31.37;;
59312;SDS011;45084;51.486;7.366;2024-01-11T09:58:18;61.47;;;32.10;;
59312;SDS011;45084;51.486;7.366;2024-01-11T10:00:45;57.83;;;30.97;;
59312;SDS011;45084;51.486;7.366;2024-01-11T10:03:13;60.83;;;29.97;;
59312;SDS011;45084;51.486;7.366;2024-01-11T10:05:39;58.10;;;31.10;;
59312;SDS011;45084;51.486;7.366;2024-01-11T10:08:06;62.03;;;31.37;;
59312;SDS011;45084;51.486;7.366;2024-01-11T10:10:33;62.97;;;31.17;;
59312;SDS011;45084;51.486;7.366;2024-01-11T10:12:58;43.90;;;24.07;;
59312;SDS011;45084;51.486;7.366;2024-01-11T10:15:24;62.47;;;29.93;;
59312;SDS011;45084;51.486;7.366;2024-01-11T10:17:50;56.67;;;30.00;;
59312;SDS011;45084;51.486;7.366;2024-01-11T10:20:15;58.60;;;29.50;;
59312;SDS011;45084;51.486;7.366;2024-01-11T10:22:48;57.70;;;29.47;;
59312;SDS011;45084;51.486;7.366;2024-01-11T10:25:15;55.57;;;30.60;;
59312;SDS011;45084;51.486;7.366;2024-01-11T10:27:43;51.50;;;29.33;;
59312;SDS011;45084;51.486;7.366;2024-01-11T10:30:10;46.73;;;26.10;;
59312;SDS011;45084;51.486;7.366;2024-01-11T10:32:38;54.57;;;28.23;;
59312;SDS011;45084;51.486;7.366;2024-01-11T10:35:06;56.53;;;30.70;;
59312;SDS011;45084;51.486;7.366;2024-01-11T10:37:32;61.30;;;29.13;;
59312;SDS011;45084;51.486;7.366;2024-01-11T10:39:59;53.83;;;30.13;;
59312;SDS011;45084;51.486;7.366;2024-01-11T10:42:29;54.03;;;28.47;;
59312;SDS011;45084;51.486;7.366;2024-01-11T10:44:56;49.00;;;27.75;;
59312;SDS011;45084;51.486;7.366;2024-01-11T10:47:27;55.70;;;28.93;;
59312;SDS011;45084;51.486;7.366;2024-01-11T10:49:55;58.77;;;29.07;;
59312;SDS011;45084;51.486;7.366;2024-01-11T10:52:23;46.90;;;24.80;;
59312;SDS011;45084;51.486;7.366;2024-01-11T10:54:57;51.93;;;26.67;;
59312;SDS011;45084;51.486;7.366;2024-01-11T10:57:24;47.60;;;27.23;;
59312;SDS011;45084;51.486;7.366;2024-01-11T10:59:50;50.88;;;26.60;;
59312;SDS011;45084;51.486;7.366;2024-01-11T11:02:17;51.47;;;26.37;;
59312;SDS011;45084;51.486;7.366;2024-01-11T11:04:43;49.33;;;25.77;;
59312;SDS011;45084;51.486;7.366;2024-01-11T11:07:14;51.70;;;27.30;;
59312;SDS011;45084;51.486;7.366;2024-01-11T11:09:41;53.42;;;27.70;;
59312;SDS011;45084;51.486;7.366;2024-01-11T11:12:10;47.87;;;27.67;;
59312;SDS011;45084;51.486;7.366;2024-01-11T11:14:39;45.83;;;26.08;;
59312;SDS011;45084;51.486;7.366;2024-01-11T11:17:05;50.90;;;26.98;;
59312;SDS011;45084;51.486;7.366;2024-01-11T11:19:31;57.50;;;28.20;;
59312;SDS011;45084;51.486;7.366;2024-01-11T11:21:57;50.13;;;29.30;;
59312;SDS011;45084;51.486;7.366;2024-01-11T11:24:22;51.83;;;28.00;;
59312;SDS011;45084;51.486;7.366;2024-01-11T11:26:48;49.00;;;27.25;;
59312;SDS011;45084;51.486;7.366;2024-01-11T11:29:14;45.53;;;25.08;;
59312;SDS011;45084;51.486;7.366;2024-01-11T11:31:44;50.67;;;26.95;;
59312;SDS011;45084;51.486;7.366;2024-01-11T11:34:12;46.58;;;27.13;;
59312;SDS011;45084;51.486;7.366;2024-01-11T11:36:41;52.22;;;26.13;;
59312;SDS011;45084;51.486;7.366;2024-01-11T11:39:09;48.08;;;27.60;;
59312;SDS011;45084;51.486;7.366;2024-01-11T11:41:36;46.67;;;27.52;;
59312;SDS011;45084;51.486;7.366;2024-01-11T11:44:04;47.17;;;25.40;;
59312;SDS011;45084;51.486;7.366;2024-01-11T11:46:33;48.50;;;26.23;;
59312;SDS011;45084;51.486;7.366;2024-01-11T11:48:59;48.08;;;28.23;;
59312;SDS011;45084;51.486;7.366;2024-01-11T11:51:27;54.17;;;29.20;;
59312;SDS011;45084;51.486;7.366;2024-01-11T11:53:54;49.00;;;27.30;;
59312;SDS011;45084;51.486;7.366;2024-01-11T11:56:20;44.20;;;26.55;;
59312;SDS011;45084;51.486;7.366;2024-01-11T11:58:47;53.50;;;26.65;;
59312;SDS011;45084;51.486;7.366;2024-01-11T12:01:14;52.05;;;26.90;;
59312;SDS011;45084;51.486;7.366;2024-01-11T12:03:42;46.83;;;27.25;;
59312;SDS011;45084;51.486;7.366;2024-01-11T12:06:13;45.38;;;25.95;;
59312;SDS011;45084;51.486;7.366;2024-01-11T12:08:41;43.88;;;23.65;;
59312;SDS011;45084;51.486;7.366;2024-01-11T12:11:07;45.65;;;24.10;;
59312;SDS011;45084;51.486;7.366;2024-01-11T12:13:33;42.45;;;24.08;;
59312;SDS011;45084;51.486;7.366;2024-01-11T12:16:00;45.53;;;26.42;;
59312;SDS011;45084;51.486;7.366;2024-01-11T12:18:25;46.40;;;23.80;;
59312;SDS011;45084;51.486;7.366;2024-01-11T12:20:51;50.03;;;24.90;;
59312;SDS011;45084;51.486;7.366;2024-01-11T12:23:19;43.67;;;23.25;;
59312;SDS011;45084;51.486;7.366;2024-01-11T12:25:45;50.17;;;25.80;;
59312;SDS011;45084;51.486;7.366;2024-01-11T12:28:11;45.90;;;24.98;;
59312;SDS011;45084;51.486;7.366;2024-01-11T12:30:37;49.95;;;25.85;;
59312;SDS011;45084;51.486;7.366;2024-01-11T12:33:03;46.25;;;25.30;;
59312;SDS011;45084;51.486;7.366;2024-01-11T12:35:30;46.55;;;24.17;;
59312;SDS011;45084;51.486;7.366;2024-01-11T12:37:59;41.92;;;20.92;;
59312;SDS011;45084;51.486;7.366;2024-01-11T12:40:37;38.92;;;20.70;;
59312;SDS011;45084;51.486;7.366;2024-01-11T12:43:07;38.00;;;20.83;;
59312;SDS011;45084;51.486;7.366;2024-01-11T12:45:33;40.83;;;21.20;;
59312;SDS011;45084;51.486;7.366;2024-01-11T12:48:00;44.97;;;24.65;;
59312;SDS011;45084;51.486;7.366;2024-01-11T12:50:33;37.38;;;22.70;;
59312;SDS011;45084;51.486;7.366;2024-01-11T12:53:14;41.70;;;23.15;;
59312;SDS011;45084;51.486;7.366;2024-01-11T12:55:43;40.33;;;22.10;;
59312;SDS011;45084;51.486;7.366;2024-01-11T12:58:10;40.28;;;23.02;;
59312;SDS011;45084;51.486;7.366;2024-01-11T13:00:36;38.88;;;22.00;;
59312;SDS011;45084;51.486;7.366;2024-01-11T13:03:02;40.78;;;22.85;;
59312;SDS011;45084;51.486;7.366;2024-01-11T13:05:29;46.58;;;23.48;;
59312;SDS011;45084;51.486;7.366;2024-01-11T13:07:59;42.58;;;23.15;;
59312;SDS011;45084;51.486;7.366;2024-01-11T13:10:26;44.20;;;22.55;;
59312;SDS011;45084;51.486;7.366;2024-01-11T13:12:53;37.15;;;21.15;;
59312;SDS011;45084;51.486;7.366;2024-01-11T13:15:19;37.92;;;20.80;;
59312;SDS011;45084;51.486;7.366;2024-01-11T13:17:45;35.83;;;20.00;;
59312;SDS011;45084;51.486;7.366;2024-01-11T13:20:10;36.70;;;20.88;;
59312;SDS011;45084;51.486;7.366;2024-01-11T13:22:36;34.90;;;19.55;;
59312;SDS011;45084;51.486;7.366;2024-01-11T13:25:02;36.72;;;19.38;;
59312;SDS011;45084;51.486;7.366;2024-01-11T13:27:27;36.60;;;21.60;;
59312;SDS011;45084;51.486;7.366;2024-01-11T13:29:53;36.60;;;19.85;;
59312;SDS011;45084;51.486;7.366;2024-01-11T13:32:18;38.85;;;21.00;;
59312;SDS011;45084;51.486;7.366;2024-01-11T13:34:47;34.63;;;19.95;;
59312;SDS011;45084;51.486;7.366;2024-01-11T13:37:12;38.15;;;20.63;;
59312;SDS011;45084;51.486;7.366;2024-01-11T13:39:38;37.78;;;21.02;;
59312;SDS011;45084;51.486;7.366;2024-01-11T13:42:04;35.38;;;18.95;;
59312;SDS011;45084;51.486;7.366;2024-01-11T13:44:34;31.40;;;19.17;;
59312;SDS011;45084;51.486;7.366;2024-01-11T13:47:00;32.28;;;17.73;;
59312;SDS011;45084;51.486;7.366;2024-01-11T13:49:25;35.20;;;19.08;;
59312;SDS011;45084;51.486;7.366;2024-01-11T13:51:51;33.65;;;18.52;;
59312;SDS011;45084;51.486;7.366;2024-01-11T13:54:19;26.45;;;16.92;;
59312;SDS011;45084;51.486;7.366;2024-01-11T13:56:47;30.40;;;16.70;;
59312;SDS011;45084;51.486;7.366;2024-01-11T13:59:12;32.90;;;18.25;;
59312;SDS011;45084;51.486;7.366;2024-01-11T14:01:39;32.33;;;18.77;;
59312;SDS011;45084;51.486;7.366;2024-01-11T14:04:04;29.00;;;17.35;;
59312;SDS011;45084;51.486;7.366;2024-01-11T14:06:30;29.80;;;17.67;;
59312;SDS011;45084;51.486;7.366;2024-01-11T14:08:56;32.25;;;17.77;;
59312;SDS011;45084;51.486;7.366;2024-01-11T14:11:21;28.40;;;16.63;;
59312;SDS011;45084;51.486;7.366;2024-01-11T14:13:47;32.65;;;19.13;;
59312;SDS011;45084;51.486;7.366;2024-01-11T14:16:13;28.17;;;17.90;;
59312;SDS011;45084;51.486;7.366;2024-01-11T14:18:40;33.50;;;19.23;;
59312;SDS011;45084;51.486;7.366;2024-01-11T14:21:06;30.58;;;17.08;;